Time;durP1;ratioP1;P1;durP2;ratioP2;P2;SDS_P1;SDS_P2;PMS_P1;PMS_P2;Temp;Humidity;BMP_temperature;BMP_pressure;BME280_temperature;BME280_humidity;BME280_pressure;Samples;Min_cycle;Max_cycle;Signal;HPM_P1;HPM_P2
2022/03/18 00:00:20;;;;;;;48.45;32.85;;;7.40;99.90;;;;;;5016750;28;20222;-84
2022/03/18 00:02:48;;;;;;;51.40;34.28;;;7.40;99.90;;;;;;5016415;28;20198;-84
2022/03/18 00:05:17;;;;;;;51.55;32.00;;;7.40;99.90;;;;;;5016180;28;20213;-84
2022/03/18 00:07:44;;;;;;;52.33;34.70;;;7.40;99.90;;;;;;5015952;28;20229;-85
2022/03/18 00:10:11;;;;;;;55.40;31.70;;;7.40;99.90;;;;;;5015856;28;20302;-83
2022/03/18 00:12:38;;;;;;;53.03;32.35;;;7.30;99.90;;;;;;5015990;28;20213;-84
2022/03/18 00:15:08;;;;;;;49.08;32.33;;;7.30;99.90;;;;;;5016140;28;20699;-84
2022/03/18 00:17:35;;;;;;;52.22;35.05;;;7.30;99.90;;;;;;5015971;28;20223;-82
2022/03/18 00:20:02;;;;;;;49.95;35.63;;;7.30;99.90;;;;;;5016169;28;20230;-83
2022/03/18 00:22:30;;;;;;;47.13;32.53;;;7.30;99.90;;;;;;5016579;28;20202;-83
2022/03/18 00:24:57;;;;;;;51.50;33.75;;;7.40;99.90;;;;;;5016509;28;20214;-82
2022/03/18 00:27:25;;;;;;;50.75;35.05;;;7.50;99.90;;;;;;5015099;28;20226;-84
2022/03/18 00:29:51;;;;;;;49.88;32.05;;;7.50;99.90;;;;;;5016211;28;20207;-84
2022/03/18 00:32:18;;;;;;;53.92;32.13;;;7.50;99.90;;;;;;5015780;28;20203;-84
2022/03/18 00:34:45;;;;;;;42.22;29.73;;;7.50;99.90;;;;;;5016041;28;20207;-83
2022/03/18 00:37:12;;;;;;;51.83;31.20;;;7.50;99.90;;;;;;5015171;28;20219;-84
2022/03/18 00:39:40;;;;;;;42.70;30.80;;;7.50;99.90;;;;;;5015862;28;20617;-84
2022/03/18 00:42:08;;;;;;;46.47;30.15;;;7.50;99.90;;;;;;5015543;28;20207;-83
2022/03/18 00:44:35;;;;;;;47.15;31.70;;;7.40;99.90;;;;;;5015640;28;20210;-84
2022/03/18 00:47:02;;;;;;;44.00;27.90;;;7.40;99.90;;;;;;4996376;28;20262;-83
2022/03/18 00:52:14;;;;;;;40.05;28.65;;;7.30;99.90;;;;;;4999815;28;20210;-84
2022/03/18 00:54:43;;;;;;;49.95;29.23;;;7.20;99.90;;;;;;5009449;28;20623;-84
2022/03/18 00:57:11;;;;;;;39.22;28.63;;;7.20;99.90;;;;;;5019589;28;20782;-84
2022/03/18 00:59:37;;;;;;;45.88;31.17;;;7.20;99.90;;;;;;5019249;28;20218;-84
2022/03/18 01:02:05;;;;;;;48.83;30.02;;;7.20;99.90;;;;;;5019473;28;20207;-84
2022/03/18 01:04:32;;;;;;;45.75;31.38;;;7.20;99.90;;;;;;5019665;28;20229;-82
2022/03/18 01:06:59;;;;;;;42.22;28.13;;;7.30;99.90;;;;;;5019392;28;20268;-84
2022/03/18 01:09:27;;;;;;;45.83;30.25;;;7.40;99.90;;;;;;5019251;28;20566;-83
2022/03/18 01:11:55;;;;;;;41.95;29.70;;;7.30;99.90;;;;;;5018970;28;20199;-83
2022/03/18 01:14:23;;;;;;;43.35;28.25;;;7.30;99.90;;;;;;5019655;28;20707;-83
2022/03/18 01:16:50;;;;;;;40.72;25.80;;;7.40;99.90;;;;;;5019106;28;20215;-83
2022/03/18 01:19:18;;;;;;;37.67;26.00;;;7.40;99.90;;;;;;5018642;28;20203;-84
2022/03/18 01:21:45;;;;;;;39.63;27.08;;;7.30;99.90;;;;;;5018667;28;20206;-82
2022/03/18 01:24:11;;;;;;;42.60;26.15;;;7.20;99.90;;;;;;5019551;28;20210;-84
2022/03/18 01:26:38;;;;;;;39.72;27.67;;;7.30;99.90;;;;;;5018867;28;20302;-84
2022/03/18 01:29:07;;;;;;;45.05;27.58;;;7.30;99.90;;;;;;5018980;28;20265;-84
2022/03/18 01:31:34;;;;;;;44.78;28.70;;;7.20;99.90;;;;;;5018531;28;20598;-84
2022/03/18 01:34:00;;;;;;;40.47;26.23;;;7.10;99.90;;;;;;5019639;28;20275;-84
2022/03/18 01:36:27;;;;;;;41.90;27.02;;;7.20;99.90;;;;;;5019465;28;20230;-84
2022/03/18 01:38:54;;;;;;;44.53;24.65;;;7.30;99.90;;;;;;5018538;28;20698;-84
2022/03/18 01:41:21;;;;;;;38.60;25.13;;;7.30;99.90;;;;;;5019136;28;20233;-82
2022/03/18 01:43:49;;;;;;;41.60;26.70;;;7.30;99.90;;;;;;5018481;28;20211;-84
2022/03/18 01:46:18;;;;;;;32.67;26.50;;;7.20;99.90;;;;;;5018338;28;20234;-82
2022/03/18 01:48:46;;;;;;;49.15;28.83;;;7.10;99.90;;;;;;5018212;28;20285;-84
2022/03/18 01:51:16;;;;;;;41.75;28.00;;;7.10;99.90;;;;;;5002698;28;20214;-84
2022/03/18 01:53:44;;;;;;;40.97;27.63;;;7.10;99.90;;;;;;5018739;28;20564;-84
2022/03/18 01:56:11;;;;;;;35.60;24.95;;;7.20;99.90;;;;;;5018325;28;20199;-83
2022/03/18 01:58:38;;;;;;;40.47;25.17;;;7.00;99.90;;;;;;5019833;28;20206;-84
2022/03/18 02:01:05;;;;;;;35.53;24.30;;;7.00;99.90;;;;;;5019655;28;20238;-83
2022/03/18 02:03:33;;;;;;;36.50;23.45;;;7.00;99.90;;;;;;5019053;28;20207;-85
2022/03/18 02:06:00;;;;;;;42.40;25.30;;;7.00;99.90;;;;;;5019017;28;20205;-83
2022/03/18 02:08:28;;;;;;;37.17;24.60;;;7.00;99.90;;;;;;5018145;28;20207;-83
2022/03/18 02:10:55;;;;;;;36.80;26.17;;;7.10;99.90;;;;;;5020886;28;20205;-83
2022/03/18 02:13:21;;;;;;;37.05;23.85;;;7.00;99.90;;;;;;5021759;28;20217;-82
2022/03/18 02:15:48;;;;;;;34.35;22.77;;;7.10;99.90;;;;;;5019363;28;20210;-84
2022/03/18 02:18:15;;;;;;;33.75;22.25;;;7.10;99.90;;;;;;5018920;28;20688;-83
2022/03/18 02:20:43;;;;;;;39.30;25.27;;;7.00;99.90;;;;;;5019986;28;20227;-83
2022/03/18 02:23:11;;;;;;;39.38;25.33;;;7.00;99.90;;;;;;5019969;28;20199;-83
2022/03/18 02:25:38;;;;;;;39.25;23.58;;;7.10;99.90;;;;;;5020660;28;20207;-83
2022/03/18 02:28:21;;;;;;;40.30;25.13;;;7.10;99.90;;;;;;5022176;22;20240;-83
2022/03/18 02:30:51;;;;;;;36.35;25.23;;;7.00;99.90;;;;;;4996864;28;20207;-82
2022/03/18 02:33:40;;;;;;;34.80;23.17;;;6.90;99.90;;;;;;4997069;28;20569;-84
2022/03/18 02:36:07;;;;;;;33.05;22.83;;;6.90;99.90;;;;;;4996659;28;20254;-83
2022/03/18 02:38:35;;;;;;;35.17;23.85;;;7.00;99.90;;;;;;4996036;28;20237;-83
2022/03/18 02:41:02;;;;;;;34.67;22.70;;;7.00;99.90;;;;;;4995431;28;20227;-83
2022/03/18 02:43:28;;;;;;;33.10;23.48;;;7.00;99.90;;;;;;4996357;28;20210;-82
2022/03/18 02:45:56;;;;;;;39.00;25.50;;;6.90;99.90;;;;;;4996676;28;20203;-83
2022/03/18 02:48:23;;;;;;;36.08;24.35;;;7.00;99.90;;;;;;4999159;28;20227;-82
2022/03/18 02:50:49;;;;;;;31.73;22.70;;;7.00;99.90;;;;;;4997058;28;20206;-82
2022/03/18 02:53:16;;;;;;;32.95;21.80;;;7.00;99.90;;;;;;4998899;28;20757;-83
2022/03/18 02:55:44;;;;;;;34.35;23.95;;;6.90;99.90;;;;;;4997707;28;20703;-84
2022/03/18 02:58:11;;;;;;;32.88;22.38;;;7.00;99.90;;;;;;5002514;28;20234;-84
2022/03/18 03:00:38;;;;;;;36.00;22.63;;;6.90;99.90;;;;;;5010691;28;20230;-85
2022/03/18 03:03:04;;;;;;;33.65;22.13;;;6.90;99.90;;;;;;5010420;28;20210;-85
2022/03/18 03:08:15;;;;;;;29.88;23.27;;;7.00;99.90;;;;;;4997178;28;20284;-83
2022/03/18 03:10:44;;;;;;;36.10;23.17;;;7.00;99.90;;;;;;4998123;28;20243;-83
2022/03/18 03:13:10;;;;;;;34.05;23.58;;;7.00;99.90;;;;;;4997339;28;20246;-83
2022/03/18 03:15:39;;;;;;;30.88;23.45;;;7.00;99.90;;;;;;4997235;28;20689;-84
2022/03/18 03:18:06;;;;;;;30.20;23.25;;;7.00;99.90;;;;;;5000206;28;20228;-83
2022/03/18 03:20:32;;;;;;;34.35;22.35;;;6.90;99.90;;;;;;4999104;28;20223;-83
2022/03/18 03:23:00;;;;;;;30.83;22.75;;;6.90;99.90;;;;;;5006018;28;20200;-82
2022/03/18 03:25:27;;;;;;;31.58;21.55;;;6.90;99.90;;;;;;4996240;28;20207;-83
2022/03/18 03:27:56;;;;;;;32.55;23.00;;;6.90;99.90;;;;;;4995722;28;20290;-84
2022/03/18 03:30:24;;;;;;;34.90;23.38;;;6.80;99.90;;;;;;4996499;28;20204;-84
2022/03/18 03:32:52;;;;;;;29.67;21.42;;;6.90;99.90;;;;;;4996640;28;20208;-84
2022/03/18 03:35:19;;;;;;;35.33;19.85;;;6.90;99.90;;;;;;4994386;28;20211;-83
2022/03/18 03:37:46;;;;;;;28.52;20.48;;;6.90;99.90;;;;;;4994018;28;20219;-84
2022/03/18 03:40:13;;;;;;;34.83;21.95;;;6.90;99.90;;;;;;4996826;28;20230;-84
2022/03/18 03:42:41;;;;;;;29.60;20.75;;;6.90;99.90;;;;;;5002301;28;20669;-84
2022/03/18 03:45:11;;;;;;;27.20;18.98;;;7.00;99.90;;;;;;5007850;28;20212;-84
2022/03/18 03:47:38;;;;;;;32.95;21.30;;;6.80;99.90;;;;;;5005390;28;20223;-83
2022/03/18 03:50:05;;;;;;;36.42;23.17;;;6.80;99.90;;;;;;5002120;28;20212;-84
2022/03/18 03:52:32;;;;;;;34.42;22.73;;;6.90;99.90;;;;;;5000477;28;20200;-83
2022/03/18 03:54:59;;;;;;;34.20;20.00;;;6.90;99.90;;;;;;5001459;28;20218;-83
2022/03/18 03:57:26;;;;;;;31.90;20.77;;;6.90;99.90;;;;;;5000768;28;20255;-83
2022/03/18 03:59:53;;;;;;;28.27;20.40;;;6.90;99.90;;;;;;5000525;28;20196;-83
2022/03/18 04:02:21;;;;;;;32.70;21.70;;;6.90;99.90;;;;;;5000728;28;20255;-83
2022/03/18 04:04:48;;;;;;;30.17;21.80;;;6.90;99.90;;;;;;5004286;28;20195;-85
2022/03/18 04:07:15;;;;;;;31.85;21.50;;;6.80;99.90;;;;;;5009269;28;20258;-85
2022/03/18 04:09:42;;;;;;;23.85;18.67;;;6.80;99.90;;;;;;4996965;28;20286;-83
2022/03/18 04:12:09;;;;;;;29.27;16.85;;;6.80;99.90;;;;;;5002068;28;20204;-86
2022/03/18 04:14:36;;;;;;;29.38;20.00;;;6.70;99.90;;;;;;5009397;28;20214;-84
2022/03/18 04:17:03;;;;;;;37.45;22.65;;;6.70;99.90;;;;;;5009805;28;20237;-87
2022/03/18 04:19:31;;;;;;;27.67;19.23;;;6.70;99.90;;;;;;5005560;28;20262;-84
2022/03/18 04:21:58;;;;;;;28.30;19.17;;;6.80;99.90;;;;;;4995513;28;20250;-84
2022/03/18 04:24:25;;;;;;;32.53;21.02;;;6.70;99.90;;;;;;5006396;28;20218;-86
2022/03/18 04:26:52;;;;;;;29.50;19.95;;;6.70;99.90;;;;;;5008723;28;20223;-84
2022/03/18 04:29:18;;;;;;;34.10;19.52;;;6.80;99.90;;;;;;5009450;28;20218;-84
2022/03/18 04:31:45;;;;;;;36.55;21.95;;;6.80;99.90;;;;;;5009123;28;20212;-84
2022/03/18 04:36:55;;;;;;;32.58;20.35;;;6.70;99.90;;;;;;4996096;28;20258;-84
2022/03/18 04:39:22;;;;;;;28.58;23.42;;;6.80;99.90;;;;;;4995633;28;20222;-84
2022/03/18 04:41:49;;;;;;;29.60;22.80;;;6.80;99.90;;;;;;4995445;28;20231;-84
2022/03/18 04:44:16;;;;;;;28.50;18.85;;;6.80;99.90;;;;;;4996015;28;20203;-84
2022/03/18 04:46:43;;;;;;;25.25;20.00;;;6.80;99.90;;;;;;4995833;28;20218;-84
2022/03/18 04:49:10;;;;;;;25.95;18.50;;;6.80;99.90;;;;;;4996069;28;20207;-84
2022/03/18 04:51:37;;;;;;;31.80;21.52;;;6.80;99.90;;;;;;4996150;28;20204;-84
2022/03/18 04:54:06;;;;;;;23.10;19.02;;;6.80;99.90;;;;;;4994693;28;20212;-82
2022/03/18 04:59:18;;;;;;;28.13;18.15;;;6.80;99.90;;;;;;4993454;28;20210;-83
2022/03/18 05:01:45;;;;;;;23.00;18.73;;;6.80;99.90;;;;;;4992963;28;20580;-83
2022/03/18 05:04:12;;;;;;;26.48;20.30;;;6.90;99.90;;;;;;4992933;28;20211;-86
2022/03/18 05:06:39;;;;;;;26.17;20.00;;;6.90;99.90;;;;;;5008733;28;20218;-85
2022/03/18 05:09:07;;;;;;;31.75;19.52;;;6.70;99.90;;;;;;5008474;28;20211;-84
2022/03/18 05:11:34;;;;;;;30.52;20.50;;;6.80;99.90;;;;;;5008857;28;20238;-86
2022/03/18 05:14:01;;;;;;;24.77;18.40;;;6.80;99.90;;;;;;5008742;28;20204;-85
2022/03/18 05:16:28;;;;;;;30.30;20.35;;;6.80;99.90;;;;;;5008010;28;20204;-85
2022/03/18 05:18:54;;;;;;;27.75;18.33;;;6.70;99.90;;;;;;5006009;28;20203;-82
2022/03/18 05:21:21;;;;;;;32.78;21.40;;;6.70;99.90;;;;;;4999097;28;20231;-84
2022/03/18 05:23:48;;;;;;;36.28;20.30;;;6.80;99.90;;;;;;4999995;28;20214;-84
2022/03/18 05:26:16;;;;;;;33.28;20.25;;;6.70;99.90;;;;;;4999510;28;20200;-84
2022/03/18 05:28:43;;;;;;;30.67;21.02;;;6.80;99.90;;;;;;4999303;28;20232;-84
2022/03/18 05:31:11;;;;;;;30.60;19.38;;;6.80;99.90;;;;;;4999519;28;20558;-84
2022/03/18 05:33:37;;;;;;;27.63;19.75;;;6.70;99.90;;;;;;4999914;28;20621;-83
2022/03/18 05:36:05;;;;;;;25.50;18.63;;;6.80;99.90;;;;;;5000285;28;20211;-84
2022/03/18 05:38:32;;;;;;;27.92;19.95;;;6.80;99.90;;;;;;5002147;28;20236;-84
2022/03/18 05:40:58;;;;;;;33.88;20.52;;;6.70;99.90;;;;;;5003258;28;20223;-83
2022/03/18 05:43:26;;;;;;;27.35;18.63;;;6.70;99.90;;;;;;4997380;28;20204;-82
2022/03/18 05:45:53;;;;;;;27.52;19.63;;;6.80;99.90;;;;;;4996566;28;20216;-82
2022/03/18 05:48:20;;;;;;;28.55;18.83;;;6.80;99.90;;;;;;4997315;28;20223;-84
2022/03/18 05:50:47;;;;;;;26.50;18.15;;;6.80;99.90;;;;;;5000854;28;20208;-85
2022/03/18 05:53:14;;;;;;;28.35;20.65;;;6.90;99.90;;;;;;5011534;28;20292;-85
2022/03/18 05:58:27;;;;;;;26.02;18.10;;;6.80;99.90;;;;;;5003742;28;20296;-86
2022/03/18 06:00:54;;;;;;;33.08;22.20;;;6.70;99.90;;;;;;5010297;28;20230;-86
2022/03/18 06:03:21;;;;;;;31.85;20.60;;;6.70;99.90;;;;;;5011190;28;20203;-85
2022/03/18 06:05:48;;;;;;;32.22;21.52;;;6.80;99.90;;;;;;4996945;28;20656;-83
2022/03/18 06:13:44;;;;;;;32.53;22.33;;;6.60;99.90;;;;;;4982438;28;20210;-83
2022/03/18 06:16:11;;;;;;;27.83;20.35;;;6.60;99.90;;;;;;4982092;28;20212;-83
2022/03/18 06:18:38;;;;;;;31.60;21.67;;;6.60;99.90;;;;;;5000931;28;20227;-83
2022/03/18 06:21:06;;;;;;;35.15;22.70;;;6.70;99.90;;;;;;4998160;28;20600;-83
2022/03/18 06:23:33;;;;;;;28.83;19.40;;;6.80;99.90;;;;;;5006512;28;20267;-86
2022/03/18 06:26:01;;;;;;;27.73;19.25;;;6.90;99.90;;;;;;5011036;28;20280;-86
2022/03/18 06:28:28;;;;;;;33.13;18.80;;;6.90;99.90;;;;;;5010428;28;20877;-85
2022/03/18 06:30:56;;;;;;;29.45;20.58;;;6.90;99.90;;;;;;5010281;28;20208;-85
2022/03/18 06:33:23;;;;;;;31.75;22.92;;;6.80;99.90;;;;;;5009567;28;20200;-84
2022/03/18 06:35:50;;;;;;;31.83;20.65;;;6.80;99.90;;;;;;5008649;28;20215;-85
2022/03/18 06:38:16;;;;;;;28.50;20.13;;;6.90;99.90;;;;;;4998199;28;20216;-83
2022/03/18 06:40:43;;;;;;;31.92;21.95;;;6.90;99.90;;;;;;5003733;28;20290;-83
2022/03/18 06:43:10;;;;;;;37.97;21.65;;;6.90;99.90;;;;;;5001636;28;20207;-83
2022/03/18 06:45:37;;;;;;;33.08;21.70;;;6.90;99.90;;;;;;4996913;28;20215;-83
2022/03/18 06:48:05;;;;;;;33.50;19.95;;;6.90;99.90;;;;;;5002349;28;20255;-83
2022/03/18 06:50:32;;;;;;;34.45;24.05;;;6.90;99.90;;;;;;4996583;28;20203;-84
2022/03/18 06:52:59;;;;;;;28.48;19.75;;;7.00;99.90;;;;;;5000562;28;20210;-84
2022/03/18 06:55:25;;;;;;;29.83;20.25;;;7.00;99.90;;;;;;4999305;28;20219;-83
2022/03/18 06:57:53;;;;;;;30.13;21.65;;;7.10;99.90;;;;;;5002582;28;20231;-83
2022/03/18 07:00:20;;;;;;;26.92;19.58;;;7.10;99.90;;;;;;5004786;28;20299;-82
2022/03/18 07:02:46;;;;;;;33.65;21.58;;;7.20;99.90;;;;;;5003496;28;20232;-83
2022/03/18 07:05:15;;;;;;;32.33;22.73;;;7.20;99.90;;;;;;5001344;28;20299;-82
2022/03/18 07:07:41;;;;;;;28.63;19.83;;;7.30;99.90;;;;;;5001165;28;20224;-84
2022/03/18 07:10:11;;;;;;;33.05;22.08;;;7.50;99.90;;;;;;5003043;28;20243;-84
2022/03/18 07:12:37;;;;;;;31.02;22.70;;;7.50;99.90;;;;;;5003864;28;20203;-84
2022/03/18 07:15:05;;;;;;;29.70;21.27;;;7.60;99.90;;;;;;5009862;28;20207;-82
2022/03/18 07:20:18;;;;;;;33.95;21.88;;;7.60;99.90;;;;;;5007282;28;20243;-82
2022/03/18 07:23:02;;;;;;;30.30;21.60;;;7.60;99.90;;;;;;5007422;28;20228;-84
2022/03/18 07:42:00;;;;;;;33.40;23.73;;;7.80;99.90;;;;;;4963852;29;20287;-82
2022/03/18 07:44:27;;;;;;;30.95;22.65;;;7.90;99.90;;;;;;5005252;28;20220;-83
2022/03/18 07:46:54;;;;;;;32.53;23.75;;;7.90;99.90;;;;;;5003991;28;20289;-84
2022/03/18 07:49:21;;;;;;;32.97;22.67;;;8.00;99.90;;;;;;5000823;28;20634;-84
2022/03/18 07:51:51;;;;;;;35.20;24.20;;;8.20;99.90;;;;;;5001458;28;20192;-84
2022/03/18 07:54:18;;;;;;;32.42;23.88;;;8.30;99.90;;;;;;5001101;28;20200;-83
2022/03/18 07:56:54;;;;;;;34.95;26.38;;;8.30;99.90;;;;;;4998472;28;20300;-84
2022/03/18 08:00:02;;;;;;;33.70;23.48;;;8.50;99.90;;;;;;5003110;28;20234;-82
2022/03/18 08:02:29;;;;;;;35.28;23.92;;;8.50;99.90;;;;;;4992906;28;20246;-82
2022/03/18 08:04:56;;;;;;;37.05;26.88;;;8.60;99.90;;;;;;4999074;28;20201;-82
2022/03/18 08:07:23;;;;;;;39.03;26.02;;;8.60;99.90;;;;;;5003987;28;20227;-82
2022/03/18 08:09:50;;;;;;;33.15;25.17;;;8.70;99.90;;;;;;5005540;28;20267;-82
2022/03/18 08:12:16;;;;;;;38.58;24.15;;;8.80;99.90;;;;;;4997462;28;20210;-82
2022/03/18 08:14:45;;;;;;;37.15;25.00;;;8.90;99.90;;;;;;5000347;28;20199;-80
2022/03/18 08:17:14;;;;;;;39.22;25.58;;;9.00;99.90;;;;;;5007366;28;20233;-81
2022/03/18 08:19:41;;;;;;;35.28;26.83;;;8.80;99.90;;;;;;5004953;28;20208;-82
2022/03/18 08:22:13;;;;;;;35.38;25.95;;;8.90;99.90;;;;;;5002876;28;20700;-82
2022/03/18 08:24:40;;;;;;;37.83;26.90;;;9.00;99.90;;;;;;4996557;28;20312;-81
2022/03/18 08:27:08;;;;;;;37.88;28.23;;;9.10;99.90;;;;;;5014310;23;20250;-83
2022/03/18 08:29:35;;;;;;;35.85;28.73;;;9.00;99.90;;;;;;5018518;28;20559;-85
2022/03/18 08:32:03;;;;;;;39.33;25.98;;;9.10;99.90;;;;;;5006982;28;20199;-82
2022/03/18 08:34:30;;;;;;;35.10;28.50;;;9.30;99.90;;;;;;5013364;28;20218;-85
2022/03/18 08:36:57;;;;;;;35.75;26.13;;;9.30;99.90;;;;;;5010850;28;20199;-85
2022/03/18 08:39:24;;;;;;;33.75;25.65;;;9.30;99.90;;;;;;5034529;28;20214;-84
2022/03/18 08:41:50;;;;;;;35.63;26.40;;;9.30;99.90;;;;;;5019697;28;20322;-84
2022/03/18 08:44:19;;;;;;;41.33;26.85;;;9.40;99.90;;;;;;5024660;28;20588;-85
2022/03/18 08:46:46;;;;;;;37.47;30.05;;;9.60;99.90;;;;;;5028220;28;20648;-84
2022/03/18 08:49:14;;;;;;;32.92;25.33;;;9.50;99.90;;;;;;5019393;28;20213;-84
2022/03/18 08:51:41;;;;;;;33.03;27.80;;;9.50;99.90;;;;;;5016078;28;20218;-84
2022/03/18 08:54:08;;;;;;;36.13;27.30;;;9.70;99.90;;;;;;5031549;28;20692;-83
2022/03/18 08:56:36;;;;;;;35.28;26.58;;;9.70;99.90;;;;;;5019262;28;20493;-80
2022/03/18 08:59:06;;;;;;;34.30;25.60;;;9.80;99.90;;;;;;5032559;28;20229;-86
2022/03/18 09:01:33;;;;;;;33.22;24.92;;;9.90;99.90;;;;;;5017338;28;20204;-85
2022/03/18 09:04:00;;;;;;;36.50;28.73;;;9.70;99.90;;;;;;5019114;28;20204;-86
2022/03/18 09:06:28;;;;;;;36.33;25.80;;;9.70;99.90;;;;;;5026556;28;20966;-85
2022/03/18 09:08:56;;;;;;;30.85;24.83;;;9.80;99.90;;;;;;5035974;28;20224;-85
2022/03/18 09:11:23;;;;;;;31.45;25.30;;;9.80;99.90;;;;;;5030096;28;20205;-85
2022/03/18 09:13:50;;;;;;;32.90;25.17;;;9.90;99.90;;;;;;5041279;28;20226;-85
2022/03/18 09:16:16;;;;;;;32.60;25.87;;;10.10;99.90;;;;;;5044378;28;20458;-85
2022/03/18 09:18:43;;;;;;;29.60;23.27;;;10.20;99.90;;;;;;5046043;28;20475;-84
2022/03/18 09:21:10;;;;;;;31.50;22.55;;;10.20;99.90;;;;;;5034835;28;20447;-85
2022/03/18 09:23:38;;;;;;;32.10;24.37;;;10.10;99.90;;;;;;5043434;28;20242;-83
2022/03/18 09:26:05;;;;;;;30.00;22.73;;;10.00;99.90;;;;;;5044970;28;20829;-83
2022/03/18 09:28:32;;;;;;;27.20;19.87;;;10.00;99.90;;;;;;5040988;28;20493;-84
2022/03/18 09:30:59;;;;;;;26.33;20.17;;;9.90;99.90;;;;;;5027156;28;20454;-85
2022/03/18 09:33:25;;;;;;;29.83;20.73;;;10.10;99.90;;;;;;5027179;28;20230;-84
2022/03/18 09:35:52;;;;;;;27.30;21.15;;;10.00;99.90;;;;;;5037211;28;20458;-84
2022/03/18 09:38:19;;;;;;;27.42;22.20;;;9.80;99.90;;;;;;5025646;28;20322;-82
2022/03/18 09:40:48;;;;;;;26.95;22.42;;;9.90;99.90;;;;;;5027016;28;20202;-85
2022/03/18 09:43:15;;;;;;;27.15;20.33;;;10.00;99.90;;;;;;5024372;28;20225;-85
2022/03/18 09:45:42;;;;;;;26.27;21.67;;;9.90;99.90;;;;;;5040646;28;20225;-84
2022/03/18 09:48:10;;;;;;;28.48;21.52;;;10.00;99.90;;;;;;5026330;28;20235;-84
2022/03/18 09:50:38;;;;;;;22.10;18.90;;;10.20;99.90;;;;;;5020299;28;20215;-83
2022/03/18 09:53:06;;;;;;;27.13;20.60;;;10.40;99.90;;;;;;5030882;28;20455;-85
2022/03/18 09:55:34;;;;;;;28.90;22.93;;;10.40;99.90;;;;;;5032869;28;20447;-83
2022/03/18 09:58:02;;;;;;;27.90;19.53;;;10.50;99.90;;;;;;5039774;28;20459;-85
2022/03/18 10:00:30;;;;;;;25.83;20.13;;;10.60;99.90;;;;;;5033119;28;20451;-85
2022/03/18 10:03:10;;;;;;;25.97;21.10;;;10.70;99.90;;;;;;5044711;28;20495;-85
2022/03/18 10:05:46;;;;;;;27.38;20.15;;;10.80;99.90;;;;;;5031440;28;20464;-84
2022/03/18 10:08:13;;;;;;;27.27;21.23;;;10.70;99.90;;;;;;5035319;28;20725;-84
2022/03/18 10:10:46;;;;;;;26.73;22.20;;;10.70;99.90;;;;;;5032233;28;20455;-83
2022/03/18 10:13:16;;;;;;;27.23;20.97;;;10.70;99.90;;;;;;5042483;28;20458;-83
2022/03/18 10:15:44;;;;;;;23.10;18.83;;;10.70;99.90;;;;;;5031410;28;20467;-84
2022/03/18 10:18:12;;;;;;;27.77;19.73;;;10.50;99.90;;;;;;5025748;28;20462;-83
2022/03/18 10:20:40;;;;;;;29.90;19.77;;;10.60;99.90;;;;;;5032586;28;20460;-83
2022/03/18 10:23:20;;;;;;;29.70;22.93;;;10.60;99.90;;;;;;5024240;28;20549;-85
2022/03/18 10:25:50;;;;;;;27.40;21.77;;;10.80;99.90;;;;;;5023082;28;20452;-85
2022/03/18 10:28:36;;;;;;;27.43;20.17;;;11.10;99.90;;;;;;5036634;28;20485;-81
2022/03/18 10:31:18;;;;;;;27.83;23.27;;;11.20;99.90;;;;;;5022940;28;20559;-83
2022/03/18 10:39:23;;;;;;;28.20;22.17;;;11.90;99.90;;;;;;5027089;28;20811;-83
2022/03/18 10:41:50;;;;;;;28.73;22.73;;;11.90;99.90;;;;;;5027361;28;20453;-84
2022/03/18 10:44:18;;;;;;;27.77;20.83;;;11.90;99.90;;;;;;5023418;28;20484;-84
2022/03/18 10:46:45;;;;;;;22.70;19.77;;;11.80;99.90;;;;;;5032561;28;20456;-85
2022/03/18 10:49:12;;;;;;;28.27;22.30;;;11.80;99.90;;;;;;5028191;28;20454;-82
2022/03/18 10:51:38;;;;;;;26.60;22.87;;;12.00;99.90;;;;;;5022685;28;20452;-85
2022/03/18 10:54:06;;;;;;;25.57;20.27;;;12.20;99.90;;;;;;5033210;28;20868;-84
2022/03/18 10:56:53;;;;;;;27.43;21.53;;;12.40;99.90;;;;;;5022914;28;20457;-84
2022/03/18 10:59:22;;;;;;;29.30;22.17;;;12.60;99.90;;;;;;5033510;28;20809;-84
2022/03/18 11:01:52;;;;;;;28.93;22.57;;;12.70;99.90;;;;;;5040000;28;20453;-84
2022/03/18 11:04:20;;;;;;;24.90;20.77;;;12.90;99.90;;;;;;5027812;28;21021;-83
2022/03/18 11:07:29;;;;;;;24.57;20.67;;;13.00;99.90;;;;;;5036656;28;20468;-83
2022/03/18 11:12:24;;;;;;;21.90;18.53;;;13.50;96.90;;;;;;5032462;28;20436;-84
2022/03/18 11:14:54;;;;;;;26.70;21.47;;;13.50;96.90;;;;;;5025627;28;20445;-83
2022/03/18 11:17:22;;;;;;;26.73;20.87;;;13.70;98.40;;;;;;5032394;28;20548;-83
2022/03/18 11:19:50;;;;;;;27.80;22.23;;;13.60;97.20;;;;;;5036405;28;20461;-86
2022/03/18 11:22:17;;;;;;;27.60;22.30;;;14.00;97.30;;;;;;5032211;28;20457;-86
2022/03/18 11:24:44;;;;;;;26.50;23.60;;;14.40;96.50;;;;;;5028001;28;20835;-84
2022/03/18 11:27:12;;;;;;;24.67;20.27;;;14.50;94.80;;;;;;5028064;28;21869;-85
2022/03/18 11:29:40;;;;;;;26.67;20.73;;;14.70;94.80;;;;;;5034618;28;20962;-86
2022/03/18 11:32:24;;;;;;;24.50;21.63;;;14.80;95.00;;;;;;5027163;28;20517;-83
2022/03/18 11:34:56;;;;;;;26.13;20.90;;;14.80;94.90;;;;;;5033364;28;20557;-85
2022/03/18 11:37:25;;;;;;;25.33;21.83;;;14.70;94.60;;;;;;5022384;28;20467;-85
2022/03/18 11:39:52;;;;;;;28.77;24.03;;;14.30;94.40;;;;;;5040452;28;20853;-85
2022/03/18 11:42:20;;;;;;;27.53;21.73;;;14.30;95.10;;;;;;5037508;28;20453;-86
2022/03/18 11:44:53;;;;;;;27.73;22.90;;;13.80;95.50;;;;;;5039405;28;20457;-86
2022/03/18 11:47:41;;;;;;;26.90;22.67;;;13.80;95.80;;;;;;5038301;28;20473;-86
2022/03/18 11:50:48;;;;;;;26.30;21.83;;;13.50;96.50;;;;;;5040302;28;20539;-79
2022/03/18 11:53:36;;;;;;;27.10;21.57;;;13.50;96.50;;;;;;5030926;28;20449;-83
2022/03/18 11:56:11;;;;;;;27.83;22.83;;;13.70;96.90;;;;;;5027075;28;20507;-84
2022/03/18 11:58:44;;;;;;;27.30;18.37;;;13.90;96.20;;;;;;5031640;28;20483;-82
2022/03/18 12:01:41;;;;;;;25.90;21.33;;;13.70;95.80;;;;;;5026917;28;20484;-85
2022/03/18 12:04:10;;;;;;;25.93;20.70;;;13.50;96.00;;;;;;5038418;28;20485;-84
2022/03/18 12:07:08;;;;;;;25.30;22.70;;;13.50;96.20;;;;;;5025729;28;20812;-84
2022/03/18 12:09:48;;;;;;;25.80;21.90;;;13.50;96.20;;;;;;5021193;28;20497;-84
2022/03/18 12:12:16;;;;;;;25.27;22.50;;;13.80;96.30;;;;;;5040514;28;20847;-82
2022/03/18 12:14:43;;;;;;;29.10;24.23;;;14.00;95.90;;;;;;5032363;28;20450;-82
2022/03/18 12:17:10;;;;;;;27.47;22.33;;;14.20;95.60;;;;;;5021263;28;20484;-81
2022/03/18 12:19:38;;;;;;;25.20;20.97;;;14.50;95.30;;;;;;5019712;28;20476;-82
2022/03/18 12:22:07;;;;;;;28.30;22.67;;;14.70;94.90;;;;;;5020414;28;20458;-83
2022/03/18 12:24:34;;;;;;;22.43;19.83;;;14.80;94.50;;;;;;5024397;28;20485;-82
2022/03/18 12:27:01;;;;;;;33.70;23.33;;;14.50;93.80;;;;;;5018544;28;20481;-83
2022/03/18 12:29:29;;;;;;;31.50;24.33;;;14.20;94.50;;;;;;5018888;28;20993;-83
2022/03/18 12:32:04;;;;;;;26.63;23.20;;;14.40;95.00;;;;;;5019096;28;20454;-83
2022/03/18 12:34:31;;;;;;;27.37;24.13;;;14.50;94.80;;;;;;5018797;28;20449;-82
2022/03/18 12:37:01;;;;;;;26.50;22.87;;;14.50;94.50;;;;;;5018772;28;20454;-83
2022/03/18 12:39:28;;;;;;;25.63;22.80;;;14.30;94.30;;;;;;5019528;28;20454;-83
2022/03/18 12:42:09;;;;;;;28.90;22.00;;;14.20;94.40;;;;;;5018681;28;21296;-82
2022/03/18 12:44:35;;;;;;;29.83;23.57;;;14.20;94.90;;;;;;5019092;28;20556;-83
2022/03/18 12:47:05;;;;;;;32.57;22.97;;;14.40;95.10;;;;;;5021034;28;20499;-82
2022/03/18 12:49:32;;;;;;;30.97;25.53;;;14.50;94.30;;;;;;5023322;28;20507;-83
2022/03/18 12:52:01;;;;;;;31.50;24.70;;;14.60;94.50;;;;;;5022618;28;20520;-83
2022/03/18 12:54:28;;;;;;;26.17;22.90;;;14.80;94.30;;;;;;5022768;28;20829;-83
2022/03/18 12:56:55;;;;;;;25.37;22.30;;;15.10;94.70;;;;;;5023186;28;20457;-83
2022/03/18 12:59:22;;;;;;;27.67;24.10;;;15.30;93.40;;;;;;5022563;28;20463;-83
2022/03/18 13:01:57;;;;;;;25.50;22.20;;;15.70;92.60;;;;;;5021936;28;20462;-82
2022/03/18 13:04:24;;;;;;;27.80;23.17;;;16.10;92.80;;;;;;5022758;28;20500;-83
2022/03/18 13:06:57;;;;;;;27.43;23.93;;;16.50;91.50;;;;;;5022590;28;20473;-83
2022/03/18 13:09:26;;;;;;;29.27;25.17;;;16.80;90.60;;;;;;5023145;28;20451;-83
2022/03/18 13:11:52;;;;;;;27.13;24.37;;;17.10;89.40;;;;;;5022678;28;20458;-83
2022/03/18 13:14:37;;;;;;;26.40;22.70;;;17.00;88.10;;;;;;5022906;28;20461;-83
2022/03/18 13:17:05;;;;;;;29.97;24.13;;;17.40;87.30;;;;;;5022627;28;20596;-83
2022/03/18 13:19:40;;;;;;;27.50;22.03;;;17.80;86.20;;;;;;5022360;28;20458;-83
2022/03/18 13:22:06;;;;;;;28.07;23.80;;;18.00;83.40;;;;;;5022084;28;20479;-83
2022/03/18 13:24:35;;;;;;;26.63;23.90;;;18.30;84.00;;;;;;5023066;28;20488;-83
2022/03/18 13:27:02;;;;;;;25.50;23.03;;;18.20;81.70;;;;;;5023016;28;20484;-83